sensor_id;sensor_type;location;lat;lon;timestamp;temperature;humidity
2657;DHT22;1338;48.176;11.792;2023-05-10T00:01:10;12.00;1.00
2657;DHT22;1338;48.176;11.792;2023-05-10T00:03:39;12.00;1.00
2657;DHT22;1338;48.176;11.792;2023-05-10T00:06:08;11.90;1.00
2657;DHT22;1338;48.176;11.792;2023-05-10T00:08:36;11.90;1.00
2657;DHT22;1338;48.176;11.792;2023-05-10T00:11:04;11.90;1.00
2657;DHT22;1338;48.176;11.792;2023-05-10T00:13:32;11.90;1.00
2657;DHT22;1338;48.176;11.792;2023-05-10T00:16:00;11.90;1.00
2657;DHT22;1338;48.176;11.792;2023-05-10T00:18:28;11.90;1.00
2657;DHT22;1338;48.176;11.792;2023-05-10T00:20:58;11.90;1.00
2657;DHT22;1338;48.176;11.792;2023-05-10T00:23:26;11.90;1.00
2657;DHT22;1338;48.176;11.792;2023-05-10T00:25:54;11.90;1.00
2657;DHT22;1338;48.176;11.792;2023-05-10T00:28:22;11.90;1.00
2657;DHT22;1338;48.176;11.792;2023-05-10T00:30:50;11.90;1.00
2657;DHT22;1338;48.176;11.792;2023-05-10T00:33:18;11.90;1.00
2657;DHT22;1338;48.176;11.792;2023-05-10T00:35:47;11.90;1.00
2657;DHT22;1338;48.176;11.792;2023-05-10T00:38:16;11.90;1.00
2657;DHT22;1338;48.176;11.792;2023-05-10T00:40:44;11.80;1.00
2657;DHT22;1338;48.176;11.792;2023-05-10T00:43:21;11.80;1.00
2657;DHT22;1338;48.176;11.792;2023-05-10T00:45:49;11.80;1.00
2657;DHT22;1338;48.176;11.792;2023-05-10T00:48:17;11.80;1.00
2657;DHT22;1338;48.176;11.792;2023-05-10T00:50:46;11.80;1.00
2657;DHT22;1338;48.176;11.792;2023-05-10T00:53:16;11.70;1.00
2657;DHT22;1338;48.176;11.792;2023-05-10T00:55:44;11.80;1.00
2657;DHT22;1338;48.176;11.792;2023-05-10T00:58:13;11.70;1.00
2657;DHT22;1338;48.176;11.792;2023-05-10T01:00:42;11.80;1.00
2657;DHT22;1338;48.176;11.792;2023-05-10T01:03:10;11.80;1.00
2657;DHT22;1338;48.176;11.792;2023-05-10T01:05:39;11.90;99.90
2657;DHT22;1338;48.176;11.792;2023-05-10T01:08:07;11.90;99.90
2657;DHT22;1338;48.176;11.792;2023-05-10T01:10:37;11.90;99.90
2657;DHT22;1338;48.176;11.792;2023-05-10T01:13:05;11.90;99.90
2657;DHT22;1338;48.176;11.792;2023-05-10T01:15:34;11.80;1.00
2657;DHT22;1338;48.176;11.792;2023-05-10T01:18:03;11.80;1.00
2657;DHT22;1338;48.176;11.792;2023-05-10T01:20:37;11.70;1.00
2657;DHT22;1338;48.176;11.792;2023-05-10T01:23:24;11.80;1.00
2657;DHT22;1338;48.176;11.792;2023-05-10T01:26:42;11.80;99.90
2657;DHT22;1338;48.176;11.792;2023-05-10T01:32:26;11.80;1.00
2657;DHT22;1338;48.176;11.792;2023-05-10T01:35:02;11.80;99.90
2657;DHT22;1338;48.176;11.792;2023-05-10T01:37:41;11.80;1.00
2657;DHT22;1338;48.176;11.792;2023-05-10T01:40:15;11.80;1.00
2657;DHT22;1338;48.176;11.792;2023-05-10T01:42:49;11.80;1.00
2657;DHT22;1338;48.176;11.792;2023-05-10T01:45:24;11.70;1.00
2657;DHT22;1338;48.176;11.792;2023-05-10T01:48:03;11.70;1.00
2657;DHT22;1338;48.176;11.792;2023-05-10T01:50:35;11.80;1.00
2657;DHT22;1338;48.176;11.792;2023-05-10T01:53:08;11.70;1.00
2657;DHT22;1338;48.176;11.792;2023-05-10T01:55:45;11.70;1.00
2657;DHT22;1338;48.176;11.792;2023-05-10T01:58:17;11.70;1.00
2657;DHT22;1338;48.176;11.792;2023-05-10T02:00:47;11.70;1.00
2657;DHT22;1338;48.176;11.792;2023-05-10T02:03:23;11.70;99.90
2657;DHT22;1338;48.176;11.792;2023-05-10T02:08:22;11.70;99.90
2657;DHT22;1338;48.176;11.792;2023-05-10T02:10:54;11.80;99.90
2657;DHT22;1338;48.176;11.792;2023-05-10T02:13:24;11.70;99.90
2657;DHT22;1338;48.176;11.792;2023-05-10T02:15:54;11.70;99.90
2657;DHT22;1338;48.176;11.792;2023-05-10T02:18:25;11.70;99.90
2657;DHT22;1338;48.176;11.792;2023-05-10T02:20:55;11.70;99.90
2657;DHT22;1338;48.176;11.792;2023-05-10T02:23:25;11.70;99.90
2657;DHT22;1338;48.176;11.792;2023-05-10T02:25:56;11.60;99.90
2657;DHT22;1338;48.176;11.792;2023-05-10T02:28:26;11.60;99.90
2657;DHT22;1338;48.176;11.792;2023-05-10T02:30:56;11.60;99.90
2657;DHT22;1338;48.176;11.792;2023-05-10T02:33:26;11.60;99.90
2657;DHT22;1338;48.176;11.792;2023-05-10T02:35:55;11.50;1.00
2657;DHT22;1338;48.176;11.792;2023-05-10T02:38:25;11.50;1.00
2657;DHT22;1338;48.176;11.792;2023-05-10T02:40:56;11.50;1.00
2657;DHT22;1338;48.176;11.792;2023-05-10T02:43:25;11.40;1.00
2657;DHT22;1338;48.176;11.792;2023-05-10T02:45:55;11.50;1.00
2657;DHT22;1338;48.176;11.792;2023-05-10T02:48:23;11.40;1.00
2657;DHT22;1338;48.176;11.792;2023-05-10T02:50:56;11.40;1.00
2657;DHT22;1338;48.176;11.792;2023-05-10T02:53:31;11.40;1.00
2657;DHT22;1338;48.176;11.792;2023-05-10T02:56:05;11.40;1.00
2657;DHT22;1338;48.176;11.792;2023-05-10T02:58:37;11.40;1.00
2657;DHT22;1338;48.176;11.792;2023-05-10T03:01:05;11.50;1.00
2657;DHT22;1338;48.176;11.792;2023-05-10T03:03:34;11.40;1.00
2657;DHT22;1338;48.176;11.792;2023-05-10T03:06:04;11.40;1.00
2657;DHT22;1338;48.176;11.792;2023-05-10T03:08:32;11.50;1.00
2657;DHT22;1338;48.176;11.792;2023-05-10T03:11:12;11.50;1.00
2657;DHT22;1338;48.176;11.792;2023-05-10T03:13:49;11.50;1.00
2657;DHT22;1338;48.176;11.792;2023-05-10T03:16:26;11.50;1.00
2657;DHT22;1338;48.176;11.792;2023-05-10T03:19:01;11.50;1.00
2657;DHT22;1338;48.176;11.792;2023-05-10T03:21:36;11.40;1.00
2657;DHT22;1338;48.176;11.792;2023-05-10T03:24:07;11.50;1.00
2657;DHT22;1338;48.176;11.792;2023-05-10T03:26:38;11.40;1.00
2657;DHT22;1338;48.176;11.792;2023-05-10T03:29:13;11.40;1.00
2657;DHT22;1338;48.176;11.792;2023-05-10T03:31:41;11.40;1.00
2657;DHT22;1338;48.176;11.792;2023-05-10T03:34:10;11.50;1.00
2657;DHT22;1338;48.176;11.792;2023-05-10T03:36:39;11.50;1.00
2657;DHT22;1338;48.176;11.792;2023-05-10T03:39:08;11.40;1.00
2657;DHT22;1338;48.176;11.792;2023-05-10T03:41:37;11.50;1.00
2657;DHT22;1338;48.176;11.792;2023-05-10T03:44:05;11.50;99.90
2657;DHT22;1338;48.176;11.792;2023-05-10T03:46:33;11.50;99.90
2657;DHT22;1338;48.176;11.792;2023-05-10T03:49:02;11.60;99.90
2657;DHT22;1338;48.176;11.792;2023-05-10T03:51:30;11.60;99.90
2657;DHT22;1338;48.176;11.792;2023-05-10T03:53:59;11.60;99.90
2657;DHT22;1338;48.176;11.792;2023-05-10T03:56:27;11.70;99.90
2657;DHT22;1338;48.176;11.792;2023-05-10T03:58:56;11.70;99.90
2657;DHT22;1338;48.176;11.792;2023-05-10T04:01:25;11.60;99.90
2657;DHT22;1338;48.176;11.792;2023-05-10T04:03:53;11.60;99.90
2657;DHT22;1338;48.176;11.792;2023-05-10T04:06:21;11.50;99.90
2657;DHT22;1338;48.176;11.792;2023-05-10T04:08:50;11.50;99.90
2657;DHT22;1338;48.176;11.792;2023-05-10T04:11:19;11.60;99.90
2657;DHT22;1338;48.176;11.792;2023-05-10T04:13:48;11.50;1.00
2657;DHT22;1338;48.176;11.792;2023-05-10T04:16:16;11.40;1.00
2657;DHT22;1338;48.176;11.792;2023-05-10T04:18:44;11.50;1.00
2657;DHT22;1338;48.176;11.792;2023-05-10T04:21:13;11.50;1.00
2657;DHT22;1338;48.176;11.792;2023-05-10T04:23:41;11.50;1.00
2657;DHT22;1338;48.176;11.792;2023-05-10T04:26:09;11.50;1.00
2657;DHT22;1338;48.176;11.792;2023-05-10T04:28:38;11.50;1.00
2657;DHT22;1338;48.176;11.792;2023-05-10T04:31:08;11.50;1.00
2657;DHT22;1338;48.176;11.792;2023-05-10T04:33:37;11.50;1.00
2657;DHT22;1338;48.176;11.792;2023-05-10T04:36:05;11.50;1.00
2657;DHT22;1338;48.176;11.792;2023-05-10T04:38:33;11.50;1.00
2657;DHT22;1338;48.176;11.792;2023-05-10T04:41:05;11.50;1.00
2657;DHT22;1338;48.176;11.792;2023-05-10T04:43:33;11.50;1.00
2657;DHT22;1338;48.176;11.792;2023-05-10T04:46:03;11.50;1.00
2657;DHT22;1338;48.176;11.792;2023-05-10T04:48:31;11.50;1.00
2657;DHT22;1338;48.176;11.792;2023-05-10T04:50:59;11.60;1.00
2657;DHT22;1338;48.176;11.792;2023-05-10T04:53:27;11.50;1.00
2657;DHT22;1338;48.176;11.792;2023-05-10T04:55:55;11.50;1.00
2657;DHT22;1338;48.176;11.792;2023-05-10T04:58:23;11.50;1.00
2657;DHT22;1338;48.176;11.792;2023-05-10T05:00:52;11.50;1.00
2657;DHT22;1338;48.176;11.792;2023-05-10T05:03:21;11.60;1.00
2657;DHT22;1338;48.176;11.792;2023-05-10T05:05:50;11.60;1.00
2657;DHT22;1338;48.176;11.792;2023-05-10T05:08:18;11.50;1.00
2657;DHT22;1338;48.176;11.792;2023-05-10T05:10:46;11.50;1.00
2657;DHT22;1338;48.176;11.792;2023-05-10T05:13:16;11.40;1.00
2657;DHT22;1338;48.176;11.792;2023-05-10T05:15:45;11.50;1.00
2657;DHT22;1338;48.176;11.792;2023-05-10T05:18:13;11.50;1.00
2657;DHT22;1338;48.176;11.792;2023-05-10T05:20:42;11.50;1.00
2657;DHT22;1338;48.176;11.792;2023-05-10T05:23:11;11.60;1.00
2657;DHT22;1338;48.176;11.792;2023-05-10T05:25:39;11.40;99.90
2657;DHT22;1338;48.176;11.792;2023-05-10T05:28:07;11.40;99.90
2657;DHT22;1338;48.176;11.792;2023-05-10T05:30:35;11.20;99.90
2657;DHT22;1338;48.176;11.792;2023-05-10T05:33:03;11.20;99.90
2657;DHT22;1338;48.176;11.792;2023-05-10T05:35:31;11.10;1.00
2657;DHT22;1338;48.176;11.792;2023-05-10T05:38:00;11.00;1.00
2657;DHT22;1338;48.176;11.792;2023-05-10T05:40:28;10.90;99.90
2657;DHT22;1338;48.176;11.792;2023-05-10T05:42:56;11.00;41.10
2657;DHT22;1338;48.176;11.792;2023-05-10T05:45:24;11.00;1.00
2657;DHT22;1338;48.176;11.792;2023-05-10T05:47:52;11.00;1.00
2657;DHT22;1338;48.176;11.792;2023-05-10T05:50:21;11.00;1.00
2657;DHT22;1338;48.176;11.792;2023-05-10T05:52:49;11.00;1.00
2657;DHT22;1338;48.176;11.792;2023-05-10T05:55:19;10.90;1.00
2657;DHT22;1338;48.176;11.792;2023-05-10T05:57:47;10.80;1.00
2657;DHT22;1338;48.176;11.792;2023-05-10T06:00:16;10.80;1.00
2657;DHT22;1338;48.176;11.792;2023-05-10T06:02:44;10.80;1.00
2657;DHT22;1338;48.176;11.792;2023-05-10T06:05:13;10.70;99.90
2657;DHT22;1338;48.176;11.792;2023-05-10T06:07:41;10.70;99.90
2657;DHT22;1338;48.176;11.792;2023-05-10T06:10:10;10.70;99.90
2657;DHT22;1338;48.176;11.792;2023-05-10T06:12:39;10.70;99.90
2657;DHT22;1338;48.176;11.792;2023-05-10T06:15:08;10.80;1.00
2657;DHT22;1338;48.176;11.792;2023-05-10T06:17:37;10.80;99.90
2657;DHT22;1338;48.176;11.792;2023-05-10T06:20:06;10.90;99.90
2657;DHT22;1338;48.176;11.792;2023-05-10T06:22:35;10.90;99.90
2657;DHT22;1338;48.176;11.792;2023-05-10T06:25:04;10.90;99.90
2657;DHT22;1338;48.176;11.792;2023-05-10T06:27:32;10.90;97.90
2657;DHT22;1338;48.176;11.792;2023-05-10T06:30:01;11.10;99.90
2657;DHT22;1338;48.176;11.792;2023-05-10T06:32:39;11.10;92.70
2657;DHT22;1338;48.176;11.792;2023-05-10T06:35:08;11.10;1.00
2657;DHT22;1338;48.176;11.792;2023-05-10T06:37:36;11.20;1.00
2657;DHT22;1338;48.176;11.792;2023-05-10T06:40:06;11.20;1.00
2657;DHT22;1338;48.176;11.792;2023-05-10T06:42:34;11.30;1.00
2657;DHT22;1338;48.176;11.792;2023-05-10T06:45:04;11.30;1.00
2657;DHT22;1338;48.176;11.792;2023-05-10T06:47:33;11.40;1.00
2657;DHT22;1338;48.176;11.792;2023-05-10T06:50:05;11.50;1.00
2657;DHT22;1338;48.176;11.792;2023-05-10T06:52:34;11.60;1.00
2657;DHT22;1338;48.176;11.792;2023-05-10T06:55:02;11.60;1.00
2657;DHT22;1338;48.176;11.792;2023-05-10T06:57:31;11.70;1.00
2657;DHT22;1338;48.176;11.792;2023-05-10T06:59:59;11.70;1.00
2657;DHT22;1338;48.176;11.792;2023-05-10T07:02:29;11.70;1.00
2657;DHT22;1338;48.176;11.792;2023-05-10T07:04:57;11.80;1.00
2657;DHT22;1338;48.176;11.792;2023-05-10T07:07:41;11.80;99.90
2657;DHT22;1338;48.176;11.792;2023-05-10T07:10:09;11.90;1.00
2657;DHT22;1338;48.176;11.792;2023-05-10T07:12:38;12.00;99.90
2657;DHT22;1338;48.176;11.792;2023-05-10T07:15:07;12.20;1.00
2657;DHT22;1338;48.176;11.792;2023-05-10T07:17:37;12.10;99.90
2657;DHT22;1338;48.176;11.792;2023-05-10T07:20:08;12.20;99.90
2657;DHT22;1338;48.176;11.792;2023-05-10T07:22:37;12.20;99.90
2657;DHT22;1338;48.176;11.792;2023-05-10T07:25:06;12.50;99.90
2657;DHT22;1338;48.176;11.792;2023-05-10T07:27:34;12.40;99.90
2657;DHT22;1338;48.176;11.792;2023-05-10T07:30:03;12.50;99.90
2657;DHT22;1338;48.176;11.792;2023-05-10T07:32:31;12.50;99.90
2657;DHT22;1338;48.176;11.792;2023-05-10T07:35:01;12.70;99.90
2657;DHT22;1338;48.176;11.792;2023-05-10T07:37:30;12.90;66.60
2657;DHT22;1338;48.176;11.792;2023-05-10T07:39:58;12.90;99.90
2657;DHT22;1338;48.176;11.792;2023-05-10T07:42:26;13.10;1.00
2657;DHT22;1338;48.176;11.792;2023-05-10T07:44:54;13.00;1.00
2657;DHT22;1338;48.176;11.792;2023-05-10T07:47:22;13.20;60.70
2657;DHT22;1338;48.176;11.792;2023-05-10T07:49:51;13.20;1.00
2657;DHT22;1338;48.176;11.792;2023-05-10T07:52:20;13.10;1.00
2657;DHT22;1338;48.176;11.792;2023-05-10T07:54:48;13.00;1.00
2657;DHT22;1338;48.176;11.792;2023-05-10T07:57:17;13.00;1.00
2657;DHT22;1338;48.176;11.792;2023-05-10T07:59:45;12.80;1.00
2657;DHT22;1338;48.176;11.792;2023-05-10T08:02:14;12.80;1.00
2657;DHT22;1338;48.176;11.792;2023-05-10T08:07:24;12.70;1.00
2657;DHT22;1338;48.176;11.792;2023-05-10T08:09:52;12.90;1.00
2657;DHT22;1338;48.176;11.792;2023-05-10T08:12:20;13.40;1.00
2657;DHT22;1338;48.176;11.792;2023-05-10T08:14:48;13.50;1.00
2657;DHT22;1338;48.176;11.792;2023-05-10T08:17:16;13.60;1.00
2657;DHT22;1338;48.176;11.792;2023-05-10T08:19:46;13.40;1.00
2657;DHT22;1338;48.176;11.792;2023-05-10T08:22:14;13.80;1.00
2657;DHT22;1338;48.176;11.792;2023-05-10T08:24:43;14.10;1.00
2657;DHT22;1338;48.176;11.792;2023-05-10T08:27:12;14.10;1.00
2657;DHT22;1338;48.176;11.792;2023-05-10T08:29:39;14.20;1.00
2657;DHT22;1338;48.176;11.792;2023-05-10T08:32:15;14.80;1.00
2657;DHT22;1338;48.176;11.792;2023-05-10T08:34:43;14.70;1.00
2657;DHT22;1338;48.176;11.792;2023-05-10T08:37:11;14.60;1.00
2657;DHT22;1338;48.176;11.792;2023-05-10T08:39:40;14.60;1.00
2657;DHT22;1338;48.176;11.792;2023-05-10T08:42:10;14.50;1.00
2657;DHT22;1338;48.176;11.792;2023-05-10T08:44:39;14.50;1.00
2657;DHT22;1338;48.176;11.792;2023-05-10T08:47:09;14.10;1.00
2657;DHT22;1338;48.176;11.792;2023-05-10T08:49:38;14.10;1.00
2657;DHT22;1338;48.176;11.792;2023-05-10T08:52:07;14.00;1.00
2657;DHT22;1338;48.176;11.792;2023-05-10T08:54:36;13.90;1.00
2657;DHT22;1338;48.176;11.792;2023-05-10T08:57:04;13.90;1.00
2657;DHT22;1338;48.176;11.792;2023-05-10T08:59:34;14.00;1.00
2657;DHT22;1338;48.176;11.792;2023-05-10T09:02:02;14.70;1.00
2657;DHT22;1338;48.176;11.792;2023-05-10T09:04:32;15.00;99.90
2657;DHT22;1338;48.176;11.792;2023-05-10T09:07:01;15.00;99.90
2657;DHT22;1338;48.176;11.792;2023-05-10T09:09:29;14.70;99.90
2657;DHT22;1338;48.176;11.792;2023-05-10T09:11:57;14.80;99.90
2657;DHT22;1338;48.176;11.792;2023-05-10T09:14:25;15.10;99.90
2657;DHT22;1338;48.176;11.792;2023-05-10T09:16:56;15.10;99.90
2657;DHT22;1338;48.176;11.792;2023-05-10T09:19:24;14.90;99.90
2657;DHT22;1338;48.176;11.792;2023-05-10T09:21:52;14.60;99.90
2657;DHT22;1338;48.176;11.792;2023-05-10T09:24:25;14.60;99.90
2657;DHT22;1338;48.176;11.792;2023-05-10T09:26:53;14.50;99.90
2657;DHT22;1338;48.176;11.792;2023-05-10T09:29:22;14.50;99.90
2657;DHT22;1338;48.176;11.792;2023-05-10T09:31:51;14.50;99.90
2657;DHT22;1338;48.176;11.792;2023-05-10T09:34:29;14.60;99.90
2657;DHT22;1338;48.176;11.792;2023-05-10T09:36:59;15.40;99.90
2657;DHT22;1338;48.176;11.792;2023-05-10T09:39:32;15.30;99.90
2657;DHT22;1338;48.176;11.792;2023-05-10T09:42:01;16.00;99.90
2657;DHT22;1338;48.176;11.792;2023-05-10T09:44:31;15.70;99.90
2657;DHT22;1338;48.176;11.792;2023-05-10T09:47:00;15.80;99.90
2657;DHT22;1338;48.176;11.792;2023-05-10T09:49:29;15.10;99.90
2657;DHT22;1338;48.176;11.792;2023-05-10T09:52:00;15.40;99.90
2657;DHT22;1338;48.176;11.792;2023-05-10T09:54:30;15.10;99.90
2657;DHT22;1338;48.176;11.792;2023-05-10T09:56:58;14.60;99.90
2657;DHT22;1338;48.176;11.792;2023-05-10T09:59:28;14.30;99.90
2657;DHT22;1338;48.176;11.792;2023-05-10T10:01:58;14.00;99.90
2657;DHT22;1338;48.176;11.792;2023-05-10T10:04:28;13.60;99.90
2657;DHT22;1338;48.176;11.792;2023-05-10T10:07:01;13.50;99.90
2657;DHT22;1338;48.176;11.792;2023-05-10T10:09:31;13.70;99.90
2657;DHT22;1338;48.176;11.792;2023-05-10T10:11:59;13.50;99.90
2657;DHT22;1338;48.176;11.792;2023-05-10T10:14:28;13.50;99.90
2657;DHT22;1338;48.176;11.792;2023-05-10T10:16:56;13.60;99.90
2657;DHT22;1338;48.176;11.792;2023-05-10T10:19:36;13.50;1.00
2657;DHT22;1338;48.176;11.792;2023-05-10T10:22:04;13.70;1.00
2657;DHT22;1338;48.176;11.792;2023-05-10T10:24:33;13.80;99.90
2657;DHT22;1338;48.176;11.792;2023-05-10T10:27:09;13.80;99.90
2657;DHT22;1338;48.176;11.792;2023-05-10T10:29:47;13.80;99.90
2657;DHT22;1338;48.176;11.792;2023-05-10T10:32:24;14.10;99.90
2657;DHT22;1338;48.176;11.792;2023-05-10T10:34:55;14.40;99.90
2657;DHT22;1338;48.176;11.792;2023-05-10T10:37:24;14.70;99.90
2657;DHT22;1338;48.176;11.792;2023-05-10T10:40:23;14.90;99.90
2657;DHT22;1338;48.176;11.792;2023-05-10T10:42:52;14.60;99.90
2657;DHT22;1338;48.176;11.792;2023-05-10T10:45:22;14.90;99.90
2657;DHT22;1338;48.176;11.792;2023-05-10T10:50:45;15.30;99.90
2657;DHT22;1338;48.176;11.792;2023-05-10T10:53:13;15.70;99.90
2657;DHT22;1338;48.176;11.792;2023-05-10T10:55:46;16.20;99.90
2657;DHT22;1338;48.176;11.792;2023-05-10T10:58:29;16.80;99.90
2657;DHT22;1338;48.176;11.792;2023-05-10T11:01:12;16.70;99.90
2657;DHT22;1338;48.176;11.792;2023-05-10T11:03:41;16.50;99.90
2657;DHT22;1338;48.176;11.792;2023-05-10T11:06:10;16.70;99.90
2657;DHT22;1338;48.176;11.792;2023-05-10T11:08:42;16.30;99.90
2657;DHT22;1338;48.176;11.792;2023-05-10T11:11:14;16.40;99.90
2657;DHT22;1338;48.176;11.792;2023-05-10T11:13:44;16.20;99.90
2657;DHT22;1338;48.176;11.792;2023-05-10T11:16:18;16.20;99.90
2657;DHT22;1338;48.176;11.792;2023-05-10T11:18:54;16.10;99.90
2657;DHT22;1338;48.176;11.792;2023-05-10T11:21:23;16.50;99.90
2657;DHT22;1338;48.176;11.792;2023-05-10T11:23:52;16.40;99.90
2657;DHT22;1338;48.176;11.792;2023-05-10T11:26:23;16.50;99.90
2657;DHT22;1338;48.176;11.792;2023-05-10T11:28:54;16.20;99.90
2657;DHT22;1338;48.176;11.792;2023-05-10T11:31:25;16.50;99.90
2657;DHT22;1338;48.176;11.792;2023-05-10T11:33:56;16.50;99.90
2657;DHT22;1338;48.176;11.792;2023-05-10T11:36:26;16.70;99.90
2657;DHT22;1338;48.176;11.792;2023-05-10T11:38:56;16.70;99.90
2657;DHT22;1338;48.176;11.792;2023-05-10T11:41:26;16.70;99.90
2657;DHT22;1338;48.176;11.792;2023-05-10T11:43:56;17.00;99.90
2657;DHT22;1338;48.176;11.792;2023-05-10T11:46:25;16.90;99.90
2657;DHT22;1338;48.176;11.792;2023-05-10T11:48:56;16.60;99.90
2657;DHT22;1338;48.176;11.792;2023-05-10T11:51:26;16.50;99.90
2657;DHT22;1338;48.176;11.792;2023-05-10T11:53:56;16.50;99.90
2657;DHT22;1338;48.176;11.792;2023-05-10T11:56:24;16.50;99.90
2657;DHT22;1338;48.176;11.792;2023-05-10T11:58:54;16.20;99.90
2657;DHT22;1338;48.176;11.792;2023-05-10T12:01:23;15.70;99.90
2657;DHT22;1338;48.176;11.792;2023-05-10T12:03:54;15.70;99.90
2657;DHT22;1338;48.176;11.792;2023-05-10T12:06:29;15.80;99.90
2657;DHT22;1338;48.176;11.792;2023-05-10T12:08:58;15.70;99.90
2657;DHT22;1338;48.176;11.792;2023-05-10T12:11:27;15.60;99.90
2657;DHT22;1338;48.176;11.792;2023-05-10T12:13:56;16.00;99.90
2657;DHT22;1338;48.176;11.792;2023-05-10T12:16:25;16.00;99.90
2657;DHT22;1338;48.176;11.792;2023-05-10T12:18:56;15.50;99.90
2657;DHT22;1338;48.176;11.792;2023-05-10T12:21:25;14.90;99.90
2657;DHT22;1338;48.176;11.792;2023-05-10T12:23:58;14.20;99.90
2657;DHT22;1338;48.176;11.792;2023-05-10T12:26:28;13.90;99.90
2657;DHT22;1338;48.176;11.792;2023-05-10T12:29:12;13.90;1.00
2657;DHT22;1338;48.176;11.792;2023-05-10T12:31:51;13.20;1.00
2657;DHT22;1338;48.176;11.792;2023-05-10T12:34:24;12.70;1.00
2657;DHT22;1338;48.176;11.792;2023-05-10T12:36:53;12.50;99.90
2657;DHT22;1338;48.176;11.792;2023-05-10T12:39:23;12.10;1.00
2657;DHT22;1338;48.176;11.792;2023-05-10T12:41:52;12.20;1.00
2657;DHT22;1338;48.176;11.792;2023-05-10T12:44:20;12.10;1.00
2657;DHT22;1338;48.176;11.792;2023-05-10T12:46:48;12.00;1.00
2657;DHT22;1338;48.176;11.792;2023-05-10T12:49:16;11.80;1.00
2657;DHT22;1338;48.176;11.792;2023-05-10T12:51:45;11.90;1.00
2657;DHT22;1338;48.176;11.792;2023-05-10T12:54:13;11.70;99.90
2657;DHT22;1338;48.176;11.792;2023-05-10T12:56:43;11.70;1.00
2657;DHT22;1338;48.176;11.792;2023-05-10T12:59:13;11.70;1.00
2657;DHT22;1338;48.176;11.792;2023-05-10T13:01:41;11.80;99.90
2657;DHT22;1338;48.176;11.792;2023-05-10T13:04:09;11.90;1.00
2657;DHT22;1338;48.176;11.792;2023-05-10T13:06:38;11.70;1.00
2657;DHT22;1338;48.176;11.792;2023-05-10T13:09:06;11.80;1.00
2657;DHT22;1338;48.176;11.792;2023-05-10T13:11:34;11.70;1.00
2657;DHT22;1338;48.176;11.792;2023-05-10T13:14:04;11.70;1.00
2657;DHT22;1338;48.176;11.792;2023-05-10T13:16:32;11.70;1.00
2657;DHT22;1338;48.176;11.792;2023-05-10T13:19:00;11.70;1.00
2657;DHT22;1338;48.176;11.792;2023-05-10T13:21:29;11.80;1.00
2657;DHT22;1338;48.176;11.792;2023-05-10T13:23:57;11.90;1.00
2657;DHT22;1338;48.176;11.792;2023-05-10T13:26:26;12.60;1.00
2657;DHT22;1338;48.176;11.792;2023-05-10T13:28:54;12.80;7.20
2657;DHT22;1338;48.176;11.792;2023-05-10T13:31:24;13.00;1.00
2657;DHT22;1338;48.176;11.792;2023-05-10T13:33:53;12.20;67.20
2657;DHT22;1338;48.176;11.792;2023-05-10T13:36:21;11.90;99.90
2657;DHT22;1338;48.176;11.792;2023-05-10T13:38:49;12.00;1.00
2657;DHT22;1338;48.176;11.792;2023-05-10T13:41:17;12.00;88.50
2657;DHT22;1338;48.176;11.792;2023-05-10T13:43:45;12.10;26.50
2657;DHT22;1338;48.176;11.792;2023-05-10T13:46:15;12.00;1.00
2657;DHT22;1338;48.176;11.792;2023-05-10T13:48:44;11.90;1.00
2657;DHT22;1338;48.176;11.792;2023-05-10T13:51:12;11.90;1.00
2657;DHT22;1338;48.176;11.792;2023-05-10T13:53:41;12.00;1.00
2657;DHT22;1338;48.176;11.792;2023-05-10T13:56:09;12.00;1.00
2657;DHT22;1338;48.176;11.792;2023-05-10T13:58:37;12.10;1.00
2657;DHT22;1338;48.176;11.792;2023-05-10T14:01:05;12.10;1.00
2657;DHT22;1338;48.176;11.792;2023-05-10T14:03:33;12.20;1.00
2657;DHT22;1338;48.176;11.792;2023-05-10T14:06:03;12.10;1.00
2657;DHT22;1338;48.176;11.792;2023-05-10T14:08:31;12.20;1.00
2657;DHT22;1338;48.176;11.792;2023-05-10T14:10:59;12.20;1.00
2657;DHT22;1338;48.176;11.792;2023-05-10T14:13:28;12.20;1.00
2657;DHT22;1338;48.176;11.792;2023-05-10T14:15:56;12.20;1.00
2657;DHT22;1338;48.176;11.792;2023-05-10T14:18:24;12.20;1.00
2657;DHT22;1338;48.176;11.792;2023-05-10T14:20:52;12.50;1.00
2657;DHT22;1338;48.176;11.792;2023-05-10T14:23:22;12.30;1.00
2657;DHT22;1338;48.176;11.792;2023-05-10T14:25:52;12.20;99.90
2657;DHT22;1338;48.176;11.792;2023-05-10T14:28:20;12.10;99.90
2657;DHT22;1338;48.176;11.792;2023-05-10T14:30:49;12.20;99.90
2657;DHT22;1338;48.176;11.792;2023-05-10T14:33:17;12.00;99.90
2657;DHT22;1338;48.176;11.792;2023-05-10T14:35:46;12.10;99.90
2657;DHT22;1338;48.176;11.792;2023-05-10T14:38:14;12.20;99.90
2657;DHT22;1338;48.176;11.792;2023-05-10T14:40:44;12.30;99.90
2657;DHT22;1338;48.176;11.792;2023-05-10T14:43:12;12.10;99.90
2657;DHT22;1338;48.176;11.792;2023-05-10T14:45:40;12.20;99.90
2657;DHT22;1338;48.176;11.792;2023-05-10T14:48:08;12.30;1.00
2657;DHT22;1338;48.176;11.792;2023-05-10T14:50:39;12.20;99.90
2657;DHT22;1338;48.176;11.792;2023-05-10T14:53:07;12.30;99.90
2657;DHT22;1338;48.176;11.792;2023-05-10T14:55:35;12.20;99.90
2657;DHT22;1338;48.176;11.792;2023-05-10T14:58:05;12.00;99.90
2657;DHT22;1338;48.176;11.792;2023-05-10T15:00:33;11.90;1.00
2657;DHT22;1338;48.176;11.792;2023-05-10T15:03:02;12.00;1.00
2657;DHT22;1338;48.176;11.792;2023-05-10T15:05:30;11.80;1.00
2657;DHT22;1338;48.176;11.792;2023-05-10T15:07:59;11.60;99.90
2657;DHT22;1338;48.176;11.792;2023-05-10T15:10:27;11.70;99.90
2657;DHT22;1338;48.176;11.792;2023-05-10T15:12:55;11.60;1.00
2657;DHT22;1338;48.176;11.792;2023-05-10T15:15:24;11.50;99.90
2657;DHT22;1338;48.176;11.792;2023-05-10T15:17:52;11.40;99.90
2657;DHT22;1338;48.176;11.792;2023-05-10T15:20:21;11.50;99.90
2657;DHT22;1338;48.176;11.792;2023-05-10T15:22:49;11.40;99.90
2657;DHT22;1338;48.176;11.792;2023-05-10T15:25:17;11.30;99.90
2657;DHT22;1338;48.176;11.792;2023-05-10T15:27:45;11.30;99.90
2657;DHT22;1338;48.176;11.792;2023-05-10T15:30:14;11.30;99.90
2657;DHT22;1338;48.176;11.792;2023-05-10T15:32:43;11.20;99.90
2657;DHT22;1338;48.176;11.792;2023-05-10T15:35:11;11.20;99.90
2657;DHT22;1338;48.176;11.792;2023-05-10T15:37:39;11.20;1.00
2657;DHT22;1338;48.176;11.792;2023-05-10T15:40:08;11.10;1.00
2657;DHT22;1338;48.176;11.792;2023-05-10T15:42:37;11.20;1.00
2657;DHT22;1338;48.176;11.792;2023-05-10T15:45:06;11.00;1.00
2657;DHT22;1338;48.176;11.792;2023-05-10T15:47:35;11.00;1.00
2657;DHT22;1338;48.176;11.792;2023-05-10T15:50:05;10.90;1.00
2657;DHT22;1338;48.176;11.792;2023-05-10T15:52:34;10.90;1.00
2657;DHT22;1338;48.176;11.792;2023-05-10T15:55:03;11.00;1.00
2657;DHT22;1338;48.176;11.792;2023-05-10T15:57:38;10.90;1.00
2657;DHT22;1338;48.176;11.792;2023-05-10T16:00:08;10.90;1.00
2657;DHT22;1338;48.176;11.792;2023-05-10T16:02:40;10.80;1.00
2657;DHT22;1338;48.176;11.792;2023-05-10T16:05:10;10.90;1.00
2657;DHT22;1338;48.176;11.792;2023-05-10T16:07:39;10.80;1.00
2657;DHT22;1338;48.176;11.792;2023-05-10T16:10:09;10.90;1.00
2657;DHT22;1338;48.176;11.792;2023-05-10T16:12:38;10.90;1.00
2657;DHT22;1338;48.176;11.792;2023-05-10T16:15:07;10.90;1.00
2657;DHT22;1338;48.176;11.792;2023-05-10T16:17:35;10.90;1.00
2657;DHT22;1338;48.176;11.792;2023-05-10T16:20:05;10.80;1.00
2657;DHT22;1338;48.176;11.792;2023-05-10T16:22:35;10.80;1.00